createdAt,value
2024-02-13T00:06:11.748Z,6.38
2024-02-13T00:16:18.550Z,6.41
2024-02-13T00:26:21.674Z,6.45
2024-02-13T00:36:25.890Z,6.46
2024-02-13T00:46:28.640Z,6.61
2024-02-13T00:56:32.783Z,6.56
2024-02-13T01:06:36.332Z,6.38
2024-02-13T01:16:41.617Z,6.36
2024-02-13T01:26:45.117Z,6.21
2024-02-13T01:36:49.438Z,6.21
2024-02-13T01:46:53.559Z,6.05
2024-02-13T01:56:58.135Z,5.94
2024-02-13T02:07:00.996Z,5.86
2024-02-13T02:17:11.869Z,5.83
2024-02-13T02:27:16.693Z,5.69
2024-02-13T02:37:20.474Z,5.74
2024-02-13T02:47:24.674Z,5.74
2024-02-13T02:57:28.047Z,5.77
2024-02-13T03:07:32.938Z,5.70
2024-02-13T03:17:38.561Z,5.80
2024-02-13T03:27:42.991Z,5.79
2024-02-13T03:37:45.819Z,5.57
2024-02-13T03:47:49.971Z,5.61
2024-02-13T03:57:53.696Z,5.57
2024-02-13T04:07:57.820Z,5.47
2024-02-13T04:18:00.791Z,5.37
2024-02-13T04:28:05.413Z,5.28
2024-02-13T04:38:10.255Z,5.20
2024-02-13T04:48:14.665Z,5.16
2024-02-13T04:58:21.273Z,5.10
2024-02-13T05:08:25.402Z,5.11
2024-02-13T05:18:28.268Z,5.10
2024-02-13T05:28:33.324Z,5.16
2024-02-13T05:38:38.992Z,5.23
2024-02-13T05:48:44.094Z,5.28
2024-02-13T05:58:47.193Z,5.16
2024-02-13T06:08:52.320Z,4.97
2024-02-13T06:18:55.348Z,4.96
2024-02-13T06:28:59.695Z,4.94
2024-02-13T06:39:04.188Z,4.98
2024-02-13T06:49:08.726Z,5.06
2024-02-13T06:59:11.864Z,5.06
2024-02-13T07:09:16.508Z,5.22
2024-02-13T07:19:19.598Z,5.22
2024-02-13T07:29:23.934Z,5.38
2024-02-13T07:39:27.915Z,5.72
2024-02-13T07:49:33.588Z,5.74
2024-02-13T07:59:36.587Z,5.96
2024-02-13T08:09:41.467Z,5.98
2024-02-13T08:19:44.311Z,5.98
2024-02-13T08:29:48.789Z,6.17
2024-02-13T08:39:51.849Z,6.30
2024-02-13T08:49:56.210Z,6.44
2024-02-13T08:59:59.196Z,6.45
2024-02-13T09:10:03.484Z,6.86
2024-02-13T09:20:07.945Z,7.03
2024-02-13T09:30:13.476Z,7.15
2024-02-13T09:40:16.856Z,7.30
2024-02-13T09:50:21.280Z,7.41
2024-02-13T10:00:24.506Z,7.74
2024-02-13T10:10:30.241Z,8.29
2024-02-13T10:20:33.164Z,8.41
2024-02-13T10:30:39.006Z,8.58
2024-02-13T10:40:44.552Z,8.60
2024-02-13T10:50:52.090Z,8.61
2024-02-13T11:00:57.556Z,8.90
2024-02-13T11:11:04.803Z,8.97
2024-02-13T11:21:10.127Z,8.93
2024-02-13T11:31:18.263Z,9.21
2024-02-13T11:41:21.351Z,8.67
2024-02-13T11:51:25.626Z,8.88
2024-02-13T12:01:29.111Z,8.64
2024-02-13T12:11:33.481Z,8.94
2024-02-13T12:21:36.325Z,9.01
2024-02-13T12:31:40.612Z,9.08
2024-02-13T12:41:43.489Z,9.50
2024-02-13T12:51:48.168Z,9.48
2024-02-13T13:01:52.046Z,9.21
2024-02-13T13:11:56.764Z,9.24
2024-02-13T13:21:59.937Z,9.11
2024-02-13T13:32:06.540Z,9.53
2024-02-13T13:42:11.036Z,9.59
2024-02-13T13:52:15.376Z,9.57
2024-02-13T14:02:18.292Z,9.75
2024-02-13T14:12:22.934Z,9.74
2024-02-13T14:22:27.957Z,9.89
2024-02-13T14:32:32.331Z,10.08
2024-02-13T14:42:35.776Z,10.09
2024-02-13T14:52:40.650Z,10.00
2024-02-13T15:02:43.826Z,9.95
2024-02-13T15:12:48.160Z,10.01
2024-02-13T15:22:51.167Z,9.83
2024-02-13T15:32:55.476Z,9.86
2024-02-13T15:43:23.999Z,9.67
2024-02-13T15:53:28.378Z,9.74
2024-02-13T16:03:36.241Z,9.52
2024-02-13T16:13:40.042Z,9.48
2024-02-13T16:23:44.186Z,9.42
2024-02-13T16:33:47.055Z,9.36
2024-02-13T16:43:51.618Z,9.29
2024-02-13T16:53:55.281Z,8.75
2024-02-13T17:04:01.866Z,8.70
2024-02-13T17:14:05.436Z,8.71
2024-02-13T17:24:11.001Z,8.81
2024-02-13T17:34:13.997Z,8.82
2024-02-13T17:44:18.222Z,8.87
2024-02-13T17:54:20.978Z,8.77
2024-02-13T18:04:26.505Z,8.82
2024-02-13T18:14:29.731Z,8.89
2024-02-13T18:24:34.067Z,8.96
2024-02-13T18:34:36.834Z,8.92
2024-02-13T18:44:41.041Z,8.87
2024-02-13T18:54:45.729Z,8.85
2024-02-13T19:04:49.919Z,8.82
2024-02-13T19:14:53.181Z,8.82
2024-02-13T19:24:57.753Z,8.76
2024-02-13T19:35:00.544Z,8.79
2024-02-13T19:45:05.773Z,8.77
2024-02-13T19:55:10.228Z,8.72
2024-02-13T20:05:14.327Z,8.68
2024-02-13T20:15:17.773Z,8.76
2024-02-13T20:25:22.131Z,8.90
2024-02-13T20:35:25.439Z,8.78
2024-02-13T20:45:31.204Z,8.75
2024-02-13T20:55:34.047Z,8.78
2024-02-13T21:05:39.348Z,8.66
2024-02-13T21:15:42.211Z,8.53
2024-02-13T21:25:46.444Z,8.44
2024-02-13T21:35:49.895Z,8.49
2024-02-13T21:45:54.284Z,8.48
2024-02-13T21:55:57.023Z,8.34
2024-02-13T22:06:01.206Z,8.36
2024-02-13T22:16:05.224Z,8.43
2024-02-13T22:26:10.473Z,8.29
2024-02-13T22:36:22.469Z,8.23
2024-02-13T22:46:26.846Z,8.22
2024-02-13T22:56:29.979Z,8.21
2024-02-13T23:06:34.303Z,8.17
2024-02-13T23:16:37.208Z,8.06
2024-02-13T23:26:41.782Z,8.06
2024-02-13T23:36:44.752Z,7.92
2024-02-13T23:46:48.820Z,7.87
2024-02-13T23:56:51.655Z,7.87
